sensor_id;sensor_type;location;lat;lon;timestamp;P1;durP1;ratioP1;P2;durP2;ratioP2
58101;SDS011;52034;51.926;6.320;2023-02-11T00:00:21;65.87;;;38.97;;
58101;SDS011;52034;51.926;6.320;2023-02-11T00:01:24;61.87;;;38.63;;
58101;SDS011;52034;51.926;6.320;2023-02-11T00:02:26;62.78;;;37.20;;
58101;SDS011;52034;51.926;6.320;2023-02-11T00:03:28;63.75;;;36.38;;
58101;SDS011;52034;51.926;6.320;2023-02-11T00:04:28;63.77;;;37.83;;
58101;SDS011;52034;51.926;6.320;2023-02-11T00:05:29;71.27;;;37.50;;
58101;SDS011;52034;51.926;6.320;2023-02-11T00:06:29;62.43;;;36.90;;
58101;SDS011;52034;51.926;6.320;2023-02-11T00:07:32;68.93;;;37.92;;
58101;SDS011;52034;51.926;6.320;2023-02-11T00:08:33;64.75;;;39.25;;
58101;SDS011;52034;51.926;6.320;2023-02-11T00:09:33;60.93;;;38.07;;
58101;SDS011;52034;51.926;6.320;2023-02-11T00:10:33;61.43;;;36.87;;
58101;SDS011;52034;51.926;6.320;2023-02-11T00:11:34;64.07;;;36.77;;
58101;SDS011;52034;51.926;6.320;2023-02-11T00:12:35;55.80;;;35.30;;
58101;SDS011;52034;51.926;6.320;2023-02-11T00:13:36;60.55;;;35.42;;
58101;SDS011;52034;51.926;6.320;2023-02-11T00:14:36;57.27;;;35.77;;
58101;SDS011;52034;51.926;6.320;2023-02-11T00:15:36;64.20;;;35.60;;
58101;SDS011;52034;51.926;6.320;2023-02-11T00:16:37;62.60;;;34.33;;
58101;SDS011;52034;51.926;6.320;2023-02-11T00:17:37;57.93;;;34.30;;
58101;SDS011;52034;51.926;6.320;2023-02-11T00:18:37;55.77;;;34.47;;
58101;SDS011;52034;51.926;6.320;2023-02-11T00:19:38;57.77;;;36.03;;
58101;SDS011;52034;51.926;6.320;2023-02-11T00:20:39;58.13;;;33.83;;
58101;SDS011;52034;51.926;6.320;2023-02-11T00:21:39;51.67;;;33.83;;
58101;SDS011;52034;51.926;6.320;2023-02-11T00:22:39;56.00;;;33.23;;
58101;SDS011;52034;51.926;6.320;2023-02-11T00:23:40;56.57;;;33.77;;
58101;SDS011;52034;51.926;6.320;2023-02-11T00:24:41;50.37;;;32.20;;
58101;SDS011;52034;51.926;6.320;2023-02-11T00:25:42;52.47;;;33.63;;
58101;SDS011;52034;51.926;6.320;2023-02-11T00:26:44;51.95;;;31.38;;
58101;SDS011;52034;51.926;6.320;2023-02-11T00:27:44;49.37;;;31.73;;
58101;SDS011;52034;51.926;6.320;2023-02-11T00:29:46;48.63;;;30.27;;
58101;SDS011;52034;51.926;6.320;2023-02-11T00:30:52;49.80;;;30.10;;
58101;SDS011;52034;51.926;6.320;2023-02-11T00:31:54;47.03;;;31.60;;
58101;SDS011;52034;51.926;6.320;2023-02-11T00:32:56;51.60;;;32.10;;
58101;SDS011;52034;51.926;6.320;2023-02-11T00:33:56;55.33;;;30.57;;
58101;SDS011;52034;51.926;6.320;2023-02-11T00:34:57;45.77;;;30.37;;
58101;SDS011;52034;51.926;6.320;2023-02-11T00:35:57;48.30;;;30.27;;
58101;SDS011;52034;51.926;6.320;2023-02-11T00:36:57;57.60;;;31.53;;
58101;SDS011;52034;51.926;6.320;2023-02-11T00:37:58;44.20;;;28.83;;
58101;SDS011;52034;51.926;6.320;2023-02-11T00:38:58;49.20;;;29.17;;
58101;SDS011;52034;51.926;6.320;2023-02-11T00:39:59;52.87;;;29.33;;
58101;SDS011;52034;51.926;6.320;2023-02-11T00:40:59;53.80;;;30.07;;
58101;SDS011;52034;51.926;6.320;2023-02-11T00:42:00;46.07;;;26.87;;
58101;SDS011;52034;51.926;6.320;2023-02-11T00:43:00;45.57;;;28.07;;
58101;SDS011;52034;51.926;6.320;2023-02-11T00:44:01;43.70;;;27.33;;
58101;SDS011;52034;51.926;6.320;2023-02-11T00:45:02;50.03;;;28.38;;
58101;SDS011;52034;51.926;6.320;2023-02-11T00:46:03;48.80;;;27.58;;
58101;SDS011;52034;51.926;6.320;2023-02-11T00:47:04;45.05;;;27.63;;
58101;SDS011;52034;51.926;6.320;2023-02-11T00:48:04;43.63;;;27.77;;
58101;SDS011;52034;51.926;6.320;2023-02-11T00:49:05;50.20;;;27.30;;
58101;SDS011;52034;51.926;6.320;2023-02-11T00:50:05;40.27;;;26.37;;
58101;SDS011;52034;51.926;6.320;2023-02-11T00:51:05;49.83;;;26.40;;
58101;SDS011;52034;51.926;6.320;2023-02-11T00:52:06;45.50;;;27.38;;
58101;SDS011;52034;51.926;6.320;2023-02-11T00:53:08;41.70;;;26.55;;
58101;SDS011;52034;51.926;6.320;2023-02-11T00:54:08;44.13;;;26.67;;
58101;SDS011;52034;51.926;6.320;2023-02-11T00:55:08;39.57;;;25.07;;
58101;SDS011;52034;51.926;6.320;2023-02-11T00:56:09;41.90;;;26.57;;
58101;SDS011;52034;51.926;6.320;2023-02-11T00:57:09;40.03;;;24.07;;
58101;SDS011;52034;51.926;6.320;2023-02-11T00:58:09;38.90;;;23.60;;
58101;SDS011;52034;51.926;6.320;2023-02-11T00:59:10;43.80;;;23.87;;
58101;SDS011;52034;51.926;6.320;2023-02-11T01:00:10;41.53;;;24.10;;
58101;SDS011;52034;51.926;6.320;2023-02-11T01:01:12;40.45;;;24.02;;
58101;SDS011;52034;51.926;6.320;2023-02-11T01:02:13;37.33;;;23.33;;
58101;SDS011;52034;51.926;6.320;2023-02-11T01:03:13;38.37;;;23.07;;
58101;SDS011;52034;51.926;6.320;2023-02-11T01:04:13;34.80;;;22.73;;
58101;SDS011;52034;51.926;6.320;2023-02-11T01:05:14;38.03;;;22.57;;
58101;SDS011;52034;51.926;6.320;2023-02-11T01:06:14;38.43;;;23.73;;
58101;SDS011;52034;51.926;6.320;2023-02-11T01:07:15;38.90;;;22.13;;
58101;SDS011;52034;51.926;6.320;2023-02-11T01:08:15;46.50;;;23.13;;
58101;SDS011;52034;51.926;6.320;2023-02-11T01:09:15;42.00;;;22.63;;
58101;SDS011;52034;51.926;6.320;2023-02-11T01:10:16;36.47;;;20.40;;
58101;SDS011;52034;51.926;6.320;2023-02-11T01:11:17;40.80;;;21.97;;
58101;SDS011;52034;51.926;6.320;2023-02-11T01:12:19;35.95;;;21.20;;
58101;SDS011;52034;51.926;6.320;2023-02-11T01:13:20;34.05;;;21.73;;
58101;SDS011;52034;51.926;6.320;2023-02-11T01:14:21;36.40;;;20.80;;
58101;SDS011;52034;51.926;6.320;2023-02-11T01:15:24;32.05;;;20.20;;
58101;SDS011;52034;51.926;6.320;2023-02-11T01:16:24;40.63;;;19.97;;
58101;SDS011;52034;51.926;6.320;2023-02-11T01:17:26;34.55;;;20.63;;
58101;SDS011;52034;51.926;6.320;2023-02-11T01:18:27;37.63;;;20.07;;
58101;SDS011;52034;51.926;6.320;2023-02-11T01:19:27;37.20;;;21.07;;
58101;SDS011;52034;51.926;6.320;2023-02-11T01:20:28;33.87;;;20.17;;
58101;SDS011;52034;51.926;6.320;2023-02-11T01:21:30;40.28;;;20.75;;
58101;SDS011;52034;51.926;6.320;2023-02-11T01:22:30;30.27;;;19.33;;
58101;SDS011;52034;51.926;6.320;2023-02-11T01:23:30;35.10;;;19.90;;
58101;SDS011;52034;51.926;6.320;2023-02-11T01:24:31;30.57;;;19.70;;
58101;SDS011;52034;51.926;6.320;2023-02-11T01:25:31;33.87;;;19.10;;
58101;SDS011;52034;51.926;6.320;2023-02-11T01:26:31;44.57;;;20.40;;
58101;SDS011;52034;51.926;6.320;2023-02-11T01:27:32;31.45;;;18.48;;
58101;SDS011;52034;51.926;6.320;2023-02-11T01:28:33;34.38;;;19.23;;
58101;SDS011;52034;51.926;6.320;2023-02-11T01:29:33;35.60;;;18.77;;
58101;SDS011;52034;51.926;6.320;2023-02-11T01:30:34;31.50;;;18.87;;
58101;SDS011;52034;51.926;6.320;2023-02-11T01:31:34;31.10;;;17.67;;
58101;SDS011;52034;51.926;6.320;2023-02-11T01:32:34;35.57;;;18.67;;
58101;SDS011;52034;51.926;6.320;2023-02-11T01:33:35;36.50;;;17.53;;
58101;SDS011;52034;51.926;6.320;2023-02-11T01:34:35;31.60;;;17.60;;
58101;SDS011;52034;51.926;6.320;2023-02-11T01:35:37;36.80;;;19.10;;
58101;SDS011;52034;51.926;6.320;2023-02-11T01:36:39;33.17;;;17.67;;
58101;SDS011;52034;51.926;6.320;2023-02-11T01:37:39;36.27;;;17.73;;
58101;SDS011;52034;51.926;6.320;2023-02-11T01:38:40;27.95;;;17.58;;
58101;SDS011;52034;51.926;6.320;2023-02-11T01:40:49;31.77;;;17.33;;
58101;SDS011;52034;51.926;6.320;2023-02-11T01:41:52;35.55;;;17.25;;
58101;SDS011;52034;51.926;6.320;2023-02-11T01:42:53;29.13;;;17.13;;
58101;SDS011;52034;51.926;6.320;2023-02-11T01:43:53;32.33;;;17.63;;
58101;SDS011;52034;51.926;6.320;2023-02-11T01:44:53;29.40;;;17.47;;
58101;SDS011;52034;51.926;6.320;2023-02-11T01:45:56;30.90;;;17.47;;
58101;SDS011;52034;51.926;6.320;2023-02-11T01:46:59;37.80;;;16.90;;
58101;SDS011;52034;51.926;6.320;2023-02-11T01:47:59;28.10;;;16.63;;
58101;SDS011;52034;51.926;6.320;2023-02-11T01:49:03;30.52;;;16.95;;
58101;SDS011;52034;51.926;6.320;2023-02-11T01:50:06;31.70;;;17.67;;
58101;SDS011;52034;51.926;6.320;2023-02-11T01:51:13;32.23;;;16.67;;
58101;SDS011;52034;51.926;6.320;2023-02-11T01:52:21;31.17;;;16.08;;
58101;SDS011;52034;51.926;6.320;2023-02-11T01:53:24;29.25;;;16.33;;
58101;SDS011;52034;51.926;6.320;2023-02-11T01:54:45;30.25;;;16.30;;
58101;SDS011;52034;51.926;6.320;2023-02-11T01:56:10;27.13;;;16.70;;
58101;SDS011;52034;51.926;6.320;2023-02-11T01:57:30;27.27;;;15.90;;
58101;SDS011;52034;51.926;6.320;2023-02-11T01:58:32;32.30;;;16.15;;
58101;SDS011;52034;51.926;6.320;2023-02-11T01:59:40;29.00;;;15.70;;
58101;SDS011;52034;51.926;6.320;2023-02-11T02:01:15;27.58;;;15.40;;
58101;SDS011;52034;51.926;6.320;2023-02-11T02:02:43;30.45;;;15.60;;
58101;SDS011;52034;51.926;6.320;2023-02-11T02:03:45;29.15;;;15.60;;
58101;SDS011;52034;51.926;6.320;2023-02-11T02:05:07;32.75;;;16.65;;
58101;SDS011;52034;51.926;6.320;2023-02-11T02:06:25;33.47;;;16.45;;
58101;SDS011;52034;51.926;6.320;2023-02-11T02:07:37;30.63;;;16.20;;
58101;SDS011;52034;51.926;6.320;2023-02-11T02:09:04;36.25;;;16.63;;
58101;SDS011;52034;51.926;6.320;2023-02-11T02:10:10;27.90;;;16.27;;
58101;SDS011;52034;51.926;6.320;2023-02-11T02:11:15;29.85;;;15.40;;
58101;SDS011;52034;51.926;6.320;2023-02-11T02:12:16;31.53;;;16.17;;
58101;SDS011;52034;51.926;6.320;2023-02-11T02:13:16;32.57;;;15.90;;
58101;SDS011;52034;51.926;6.320;2023-02-11T02:14:17;29.33;;;15.87;;
58101;SDS011;52034;51.926;6.320;2023-02-11T02:15:19;30.92;;;15.30;;
58101;SDS011;52034;51.926;6.320;2023-02-11T02:16:29;30.60;;;15.20;;
58101;SDS011;52034;51.926;6.320;2023-02-11T02:17:37;30.77;;;15.38;;
58101;SDS011;52034;51.926;6.320;2023-02-11T02:20:10;30.17;;;15.40;;
58101;SDS011;52034;51.926;6.320;2023-02-11T02:23:21;32.50;;;16.20;;
58101;SDS011;52034;51.926;6.320;2023-02-11T02:24:47;32.42;;;15.52;;
58101;SDS011;52034;51.926;6.320;2023-02-11T02:31:36;30.73;;;15.70;;
58101;SDS011;52034;51.926;6.320;2023-02-11T02:34:23;34.90;;;15.25;;
58101;SDS011;52034;51.926;6.320;2023-02-11T02:35:34;28.33;;;14.35;;
58101;SDS011;52034;51.926;6.320;2023-02-11T02:36:42;34.97;;;16.10;;
58101;SDS011;52034;51.926;6.320;2023-02-11T02:38:29;27.27;;;15.25;;
58101;SDS011;52034;51.926;6.320;2023-02-11T02:39:27;36.75;;;16.38;;
58101;SDS011;52034;51.926;6.320;2023-02-11T02:40:38;33.90;;;16.33;;
58101;SDS011;52034;51.926;6.320;2023-02-11T02:41:42;29.10;;;14.70;;
58101;SDS011;52034;51.926;6.320;2023-02-11T02:42:44;33.67;;;15.95;;
58101;SDS011;52034;51.926;6.320;2023-02-11T02:43:47;32.42;;;15.40;;
58101;SDS011;52034;51.926;6.320;2023-02-11T02:44:48;31.23;;;14.80;;
58101;SDS011;52034;51.926;6.320;2023-02-11T02:45:50;31.05;;;15.32;;
58101;SDS011;52034;51.926;6.320;2023-02-11T02:46:50;36.97;;;15.93;;
58101;SDS011;52034;51.926;6.320;2023-02-11T02:47:51;37.17;;;14.70;;
58101;SDS011;52034;51.926;6.320;2023-02-11T02:48:52;27.93;;;14.70;;
58101;SDS011;52034;51.926;6.320;2023-02-11T02:49:53;32.72;;;14.57;;
58101;SDS011;52034;51.926;6.320;2023-02-11T02:51:00;30.83;;;14.70;;
58101;SDS011;52034;51.926;6.320;2023-02-11T02:53:54;27.60;;;15.63;;
58101;SDS011;52034;51.926;6.320;2023-02-11T02:59:08;28.80;;;15.15;;
58101;SDS011;52034;51.926;6.320;2023-02-11T03:08:15;30.90;;;14.38;;
58101;SDS011;52034;51.926;6.320;2023-02-11T03:09:53;32.75;;;14.43;;
58101;SDS011;52034;51.926;6.320;2023-02-11T03:11:24;42.45;;;15.77;;
58101;SDS011;52034;51.926;6.320;2023-02-11T03:12:51;34.65;;;15.23;;
58101;SDS011;52034;51.926;6.320;2023-02-11T03:14:18;30.17;;;15.73;;
58101;SDS011;52034;51.926;6.320;2023-02-11T03:15:47;32.55;;;16.67;;
58101;SDS011;52034;51.926;6.320;2023-02-11T03:17:15;29.33;;;17.65;;
58101;SDS011;52034;51.926;6.320;2023-02-11T03:18:41;35.33;;;17.08;;
58101;SDS011;52034;51.926;6.320;2023-02-11T03:20:12;31.00;;;17.55;;
58101;SDS011;52034;51.926;6.320;2023-02-11T03:21:42;33.30;;;18.52;;
58101;SDS011;52034;51.926;6.320;2023-02-11T03:23:10;32.00;;;17.90;;
58101;SDS011;52034;51.926;6.320;2023-02-11T03:24:41;38.08;;;19.35;;
58101;SDS011;52034;51.926;6.320;2023-02-11T03:26:08;31.08;;;18.00;;
58101;SDS011;52034;51.926;6.320;2023-02-11T03:27:46;29.52;;;16.67;;
58101;SDS011;52034;51.926;6.320;2023-02-11T03:34:09;34.15;;;18.98;;
58101;SDS011;52034;51.926;6.320;2023-02-11T03:35:39;37.42;;;19.38;;
58101;SDS011;52034;51.926;6.320;2023-02-11T03:37:14;33.22;;;18.52;;
58101;SDS011;52034;51.926;6.320;2023-02-11T03:38:58;35.47;;;18.33;;
58101;SDS011;52034;51.926;6.320;2023-02-11T03:40:27;32.20;;;18.67;;
58101;SDS011;52034;51.926;6.320;2023-02-11T03:41:57;32.90;;;18.45;;
58101;SDS011;52034;51.926;6.320;2023-02-11T03:43:29;33.90;;;18.27;;
58101;SDS011;52034;51.926;6.320;2023-02-11T03:45:03;34.00;;;19.52;;
58101;SDS011;52034;51.926;6.320;2023-02-11T03:46:32;33.05;;;18.20;;
